Renault, Illinois
Current Conditions -  °F | °C
As of 2:35 PM on Saturday 20 Dec 2014 (Local Time) from KSAR Reporting Station
Overcast Overcast  
Wind Chill: 40°   Ceiling: 3300
Heat Index: 40°   Visibility: 10mi
Dew Point: 32°   Wind: 3mph
Humidity: 73%   Direction: 110°ESE
Pressure: 30.24"   Gusts: NA
Location:  38.15°N, 90.13°W
Report Text: KSAR 202035Z AUTO 11003KT 10SM SCT022 OVC033 05/00 A3024 RMK AO2 T00460002
Loading
Personal Weather Stations






























Interactive Weather Map New forecast layout! Learn more

10-Day Weather Forecast

Advertisements
Track Severe Weather on mobile